FMCZ

Dzaoudzi Pamandzi International Airport

Dzaoudzi, Mayotte
TAF FMCZ 241700Z 2418/2518 34008KT 9999 FEW020 SCT100 BECMG 2503/2506 18012KT BECMG 2514/2516 VRB03KT
Issued Valid From Valid To
Sep-24 @ 17:00 UTC
(3 hours ago)
Sep-24 @ 18:00 UTC
(2 hours ago)
Sep-25 @ 18:00 UTC
(in 22 hours)
Sep-24 @ 18:00 to Sep-25 @ 03:00
TAF FMCZ 241700Z 2418/2518 34008KT 9999 FEW020 SCT100
Wind Visibility Clouds
340° at 8 knots 10,000+ meters
  • Few at 2,000' AGL
  • Scattered at 10,000' AGL
Becoming Sep-25 @ 03:00 to Sep-25 @ 14:00
BECMG 2503/2506 18012KT
Wind Visibility Clouds
180° at 12 knots 10,000+ meters
  • Few at 2,000' AGL
  • Scattered at 10,000' AGL
Becoming Sep-25 @ 14:00 to Sep-25 @ 18:00
BECMG 2514/2516 VRB03KT
Wind Visibility Clouds
Variable at 3 knots 10,000+ meters
  • Few at 2,000' AGL
  • Scattered at 10,000' AGL
TAF FMCZ 241700Z 2418/2518 34008KT 9999 FEW020 SCT100 BECMG 2503/2506 18012KT BECMG 2514/2516 VRB03KT
Issued Sep-24 @ 17:00 UTC
(3 hours ago)
Valid From Sep-24 @ 18:00 UTC
(2 hours ago)
Valid To Sep-25 @ 18:00 UTC
(in 22 hours)
Sep-24 @ 18:00 - Sep-25 @ 03:00
Wind Visibility
340° at 8 knots 10,000+ meters
Clouds
  • Few at 2,000' AGL
  • Scattered at 10,000' AGL
Becoming Sep-25 @ 03:00 - Sep-25 @ 14:00
Wind Visibility
180° at 12 knots 10,000+ meters
Clouds
  • Few at 2,000' AGL
  • Scattered at 10,000' AGL
Becoming Sep-25 @ 14:00 - Sep-25 @ 18:00
Wind Visibility
Variable at 3 knots 10,000+ meters
Clouds
  • Few at 2,000' AGL
  • Scattered at 10,000' AGL